VIR187 TBPB-TGPY
Flight info
| Callsign | VIR187 |
|---|---|
| Flight time | 0h 35m |
| Altitude | 12000 |
| Route | BGI A561 GND |
| Aircraft | A333/H-SDE3GHIJ2J3J5M1RVWXY/LB2D1 |
Departure
| Time | 2026-04-22 22:36 |
|---|---|
| Airport | Grantley Adams International Airport (TBPB) |
Arrival
| Time | 2026-04-22 23:12 |
|---|---|
| Airport | Maurice Bishop International Airport (TGPY) |
| Time | Latitude | Longitude | Altitude | Speed | Heading |
|---|---|---|---|---|---|
| 2026-04-22 21:00 | 13.07926 | -59.48560 | 179 ft | 0 kts | 346° |
| 2026-04-22 21:01 | 13.07916 | -59.48555 | 179 ft | 0 kts | 346° |
| 2026-04-22 22:24 | 13.07915 | -59.48555 | 179 ft | 1 kts | 346° |
| 2026-04-22 22:24 | 13.07892 | -59.48549 | 179 ft | 4 kts | 346° |
| 2026-04-22 22:25 | 13.07867 | -59.48542 | 179 ft | 4 kts | 332° |
| 2026-04-22 22:25 | 13.07848 | -59.48525 | 179 ft | 4 kts | 297° |
| 2026-04-22 22:25 | 13.07840 | -59.48499 | 179 ft | 4 kts | 274° |
| 2026-04-22 22:25 | 13.07841 | -59.48474 | 179 ft | 2 kts | 256° |
| 2026-04-22 22:26 | 13.07841 | -59.48472 | 179 ft | 0 kts | 256° |
| 2026-04-22 22:29 | 13.07840 | -59.48476 | 179 ft | 2 kts | 256° |
| 2026-04-22 22:29 | 13.07836 | -59.48495 | 179 ft | 3 kts | 260° |
| 2026-04-22 22:29 | 13.07832 | -59.48528 | 179 ft | 6 kts | 262° |
| 2026-04-22 22:30 | 13.07823 | -59.48576 | 179 ft | 8 kts | 259° |
| 2026-04-22 22:30 | 13.07810 | -59.48638 | 179 ft | 10 kts | 257° |
| 2026-04-22 22:30 | 13.07788 | -59.48713 | 179 ft | 12 kts | 247° |
| 2026-04-22 22:30 | 13.07740 | -59.48780 | 179 ft | 12 kts | 238° |
| 2026-04-22 22:31 | 13.07719 | -59.48868 | 179 ft | 14 kts | 258° |
| 2026-04-22 22:31 | 13.07696 | -59.48969 | 180 ft | 15 kts | 256° |
| 2026-04-22 22:31 | 13.07668 | -59.49083 | 180 ft | 17 kts | 256° |
| 2026-04-22 22:31 | 13.07638 | -59.49209 | 180 ft | 19 kts | 256° |
| 2026-04-22 22:32 | 13.07604 | -59.49349 | 180 ft | 21 kts | 256° |
| 2026-04-22 22:32 | 13.07567 | -59.49502 | 179 ft | 23 kts | 255° |
| 2026-04-22 22:32 | 13.07523 | -59.49663 | 179 ft | 24 kts | 254° |
| 2026-04-22 22:32 | 13.07481 | -59.49838 | 179 ft | 26 kts | 256° |
| 2026-04-22 22:33 | 13.07438 | -59.50023 | 179 ft | 27 kts | 256° |
| 2026-04-22 22:33 | 13.07389 | -59.50216 | 179 ft | 29 kts | 255° |
| 2026-04-22 22:33 | 13.07338 | -59.50417 | 180 ft | 30 kts | 257° |
| 2026-04-22 22:33 | 13.07290 | -59.50622 | 179 ft | 25 kts | 256° |
| 2026-04-22 22:34 | 13.07259 | -59.50707 | 179 ft | 6 kts | 221° |
| 2026-04-22 22:34 | 13.07228 | -59.50719 | 179 ft | 5 kts | 194° |
| 2026-04-22 22:34 | 13.07194 | -59.50722 | 179 ft | 5 kts | 175° |
| 2026-04-22 22:34 | 13.07156 | -59.50714 | 179 ft | 7 kts | 169° |
| 2026-04-22 22:35 | 13.07124 | -59.50690 | 179 ft | 5 kts | 116° |
| 2026-04-22 22:35 | 13.07118 | -59.50653 | 179 ft | 6 kts | 87° |
| 2026-04-22 22:35 | 13.07124 | -59.50610 | 179 ft | 7 kts | 84° |
| 2026-04-22 22:35 | 13.07141 | -59.50545 | 179 ft | 18 kts | 75° |
| 2026-04-22 22:36 | 13.07202 | -59.50301 | 181 ft | 64 kts | 76° |
| 2026-04-22 22:36 | 13.07363 | -59.49639 | 179 ft | 127 kts | 76° |
| 2026-04-22 22:36 | 13.07625 | -59.48582 | 353 ft | 170 kts | 77° |
| 2026-04-22 22:36 | 13.07908 | -59.47388 | 1154 ft | 166 kts | 75° |
| 2026-04-22 22:37 | 13.07980 | -59.46257 | 1873 ft | 163 kts | 105° |
| 2026-04-22 22:37 | 13.07188 | -59.45343 | 2084 ft | 197 kts | 153° |
| 2026-04-22 22:37 | 13.05711 | -59.45263 | 2341 ft | 236 kts | 195° |
| 2026-04-22 22:37 | 13.04314 | -59.46294 | 2738 ft | 262 kts | 233° |
| 2026-04-22 22:38 | 13.03323 | -59.47895 | 3476 ft | 270 kts | 239° |
| 2026-04-22 22:38 | 13.02385 | -59.49578 | 4398 ft | 271 kts | 240° |
| 2026-04-22 22:38 | 13.01500 | -59.51301 | 5388 ft | 272 kts | 243° |
| 2026-04-22 22:38 | 13.00677 | -59.53048 | 6356 ft | 273 kts | 244° |
| 2026-04-22 22:39 | 12.99894 | -59.54832 | 7247 ft | 275 kts | 246° |
| 2026-04-22 22:39 | 12.99144 | -59.56619 | 8164 ft | 277 kts | 247° |
| 2026-04-22 22:39 | 12.98395 | -59.58443 | 9138 ft | 279 kts | 248° |
| 2026-04-22 22:39 | 12.97642 | -59.60287 | 10045 ft | 282 kts | 248° |
| 2026-04-22 22:40 | 12.96858 | -59.62208 | 10537 ft | 302 kts | 248° |
| 2026-04-22 22:40 | 12.96015 | -59.64267 | 10823 ft | 325 kts | 248° |
| 2026-04-22 22:40 | 12.95107 | -59.66471 | 11111 ft | 346 kts | 248° |
| 2026-04-22 22:40 | 12.94145 | -59.68798 | 11538 ft | 359 kts | 248° |
| 2026-04-22 22:41 | 12.93158 | -59.71175 | 12184 ft | 365 kts | 248° |
| 2026-04-22 22:41 | 12.92167 | -59.73560 | 12894 ft | 369 kts | 248° |
| 2026-04-22 22:41 | 12.91157 | -59.75990 | 13601 ft | 373 kts | 248° |
| 2026-04-22 22:41 | 12.90215 | -59.78483 | 14210 ft | 376 kts | 253° |
| 2026-04-22 22:42 | 12.89478 | -59.81075 | 14775 ft | 381 kts | 255° |
| 2026-04-22 22:42 | 12.88784 | -59.83715 | 15319 ft | 386 kts | 256° |
| 2026-04-22 22:42 | 12.88100 | -59.86399 | 15887 ft | 390 kts | 256° |
| 2026-04-22 22:42 | 12.87420 | -59.89108 | 16443 ft | 395 kts | 256° |
| 2026-04-22 22:43 | 12.86741 | -59.91831 | 16974 ft | 399 kts | 256° |
| 2026-04-22 22:43 | 12.86052 | -59.94602 | 17524 ft | 403 kts | 256° |
| 2026-04-22 22:43 | 12.85356 | -59.97404 | 18050 ft | 407 kts | 256° |
| 2026-04-22 22:43 | 12.84655 | -60.00231 | 18532 ft | 410 kts | 256° |
| 2026-04-22 22:44 | 12.83949 | -60.03076 | 18968 ft | 414 kts | 256° |
| 2026-04-22 22:44 | 12.83238 | -60.05940 | 19437 ft | 416 kts | 256° |
| 2026-04-22 22:44 | 12.82523 | -60.08818 | 19808 ft | 417 kts | 256° |
| 2026-04-22 22:44 | 12.81802 | -60.11721 | 19932 ft | 424 kts | 256° |
| 2026-04-22 22:45 | 12.81068 | -60.14676 | 19945 ft | 431 kts | 256° |
| 2026-04-22 22:45 | 12.80334 | -60.17626 | 19945 ft | 432 kts | 256° |
| 2026-04-22 22:45 | 12.79592 | -60.20611 | 19947 ft | 432 kts | 256° |
| 2026-04-22 22:45 | 12.78847 | -60.23602 | 19947 ft | 432 kts | 256° |
| 2026-04-22 22:46 | 12.78104 | -60.26587 | 19947 ft | 432 kts | 256° |
| 2026-04-22 22:46 | 12.77361 | -60.29570 | 19946 ft | 432 kts | 256° |
| 2026-04-22 22:46 | 12.76617 | -60.32553 | 19948 ft | 432 kts | 256° |
| 2026-04-22 22:46 | 12.75871 | -60.35544 | 19947 ft | 432 kts | 256° |
| 2026-04-22 22:47 | 12.75127 | -60.38527 | 19945 ft | 432 kts | 256° |
| 2026-04-22 22:47 | 12.74381 | -60.41516 | 19943 ft | 432 kts | 256° |
| 2026-04-22 22:47 | 12.73636 | -60.44499 | 19944 ft | 432 kts | 256° |
| 2026-04-22 22:47 | 12.72899 | -60.47448 | 19943 ft | 432 kts | 256° |
| 2026-04-22 22:48 | 12.72154 | -60.50429 | 19947 ft | 432 kts | 256° |
| 2026-04-22 22:48 | 12.71406 | -60.53418 | 19947 ft | 432 kts | 256° |
| 2026-04-22 22:48 | 12.70658 | -60.56407 | 19947 ft | 432 kts | 256° |
| 2026-04-22 22:48 | 12.69910 | -60.59394 | 19947 ft | 432 kts | 256° |
| 2026-04-22 22:49 | 12.69163 | -60.62375 | 19946 ft | 432 kts | 256° |
| 2026-04-22 22:49 | 12.68423 | -60.65330 | 19945 ft | 432 kts | 256° |
| 2026-04-22 22:49 | 12.67674 | -60.68316 | 19944 ft | 432 kts | 256° |
| 2026-04-22 22:49 | 12.66926 | -60.71296 | 19941 ft | 432 kts | 256° |
| 2026-04-22 22:50 | 12.66175 | -60.74290 | 19947 ft | 432 kts | 256° |
| 2026-04-22 22:50 | 12.65425 | -60.77277 | 19945 ft | 432 kts | 256° |
| 2026-04-22 22:50 | 12.64677 | -60.80252 | 19947 ft | 431 kts | 256° |
| 2026-04-22 22:50 | 12.63928 | -60.83233 | 19947 ft | 430 kts | 256° |
| 2026-04-22 22:51 | 12.63201 | -60.86119 | 19951 ft | 416 kts | 256° |
| 2026-04-22 22:51 | 12.62490 | -60.88947 | 19948 ft | 407 kts | 256° |
| 2026-04-22 22:51 | 12.61784 | -60.91751 | 19947 ft | 407 kts | 256° |
| 2026-04-22 22:51 | 12.61076 | -60.94562 | 19945 ft | 407 kts | 256° |
| 2026-04-22 22:52 | 12.60369 | -60.97369 | 19946 ft | 402 kts | 256° |
| 2026-04-22 22:52 | 12.59683 | -61.00088 | 19943 ft | 385 kts | 256° |
| 2026-04-22 22:52 | 12.59020 | -61.02713 | 19948 ft | 377 kts | 256° |
| 2026-04-22 22:52 | 12.58376 | -61.05270 | 19863 ft | 375 kts | 256° |
| 2026-04-22 22:53 | 12.57725 | -61.07846 | 19560 ft | 371 kts | 256° |
| 2026-04-22 22:53 | 12.57086 | -61.10378 | 19208 ft | 366 kts | 256° |
| 2026-04-22 22:53 | 12.56448 | -61.12904 | 18716 ft | 367 kts | 256° |
| 2026-04-22 22:53 | 12.55808 | -61.15435 | 18257 ft | 366 kts | 256° |
| 2026-04-22 22:54 | 12.55171 | -61.17955 | 17754 ft | 365 kts | 256° |
| 2026-04-22 22:54 | 12.54538 | -61.20460 | 17300 ft | 362 kts | 256° |
| 2026-04-22 22:54 | 12.53909 | -61.22946 | 16838 ft | 360 kts | 256° |
| 2026-04-22 22:54 | 12.53289 | -61.25394 | 16397 ft | 357 kts | 256° |
| 2026-04-22 22:55 | 12.52666 | -61.27851 | 15944 ft | 355 kts | 256° |
| 2026-04-22 22:55 | 12.52048 | -61.30293 | 15492 ft | 352 kts | 256° |
| 2026-04-22 22:55 | 12.50822 | -61.35129 | 14575 ft | 349 kts | 256° |
| 2026-04-22 22:56 | 12.50213 | -61.37527 | 14132 ft | 347 kts | 256° |
| 2026-04-22 22:56 | 12.49608 | -61.39911 | 13689 ft | 345 kts | 256° |
| 2026-04-22 22:56 | 12.49006 | -61.42285 | 13206 ft | 343 kts | 256° |
| 2026-04-22 22:56 | 12.48417 | -61.44602 | 12760 ft | 339 kts | 256° |
| 2026-04-22 22:57 | 12.47828 | -61.46921 | 12322 ft | 336 kts | 256° |
| 2026-04-22 22:57 | 12.47244 | -61.49221 | 11903 ft | 332 kts | 256° |
| 2026-04-22 22:57 | 12.46664 | -61.51503 | 11481 ft | 329 kts | 256° |
| 2026-04-22 22:57 | 12.46090 | -61.53759 | 11068 ft | 326 kts | 256° |
| 2026-04-22 22:58 | 12.45374 | -61.55953 | 10667 ft | 323 kts | 245° |
| 2026-04-22 22:58 | 12.44146 | -61.57864 | 10377 ft | 317 kts | 232° |
| 2026-04-22 22:58 | 12.42750 | -61.59538 | 10302 ft | 302 kts | 230° |
| 2026-04-22 22:58 | 12.41404 | -61.61095 | 10183 ft | 290 kts | 230° |
| 2026-04-22 22:59 | 12.40086 | -61.62617 | 10046 ft | 281 kts | 230° |
| 2026-04-22 22:59 | 12.38807 | -61.64098 | 9848 ft | 275 kts | 230° |
| 2026-04-22 22:59 | 12.37540 | -61.65570 | 9483 ft | 276 kts | 230° |
| 2026-04-22 22:59 | 12.36274 | -61.67043 | 9171 ft | 275 kts | 230° |
| 2026-04-22 23:00 | 12.35014 | -61.68509 | 8869 ft | 273 kts | 230° |
| 2026-04-22 23:00 | 12.33776 | -61.69950 | 8521 ft | 273 kts | 230° |
| 2026-04-22 23:00 | 12.32523 | -61.71408 | 8213 ft | 272 kts | 229° |
| 2026-04-22 23:00 | 12.31279 | -61.72856 | 7902 ft | 270 kts | 230° |
| 2026-04-22 23:01 | 12.30037 | -61.74302 | 7596 ft | 270 kts | 230° |
| 2026-04-22 23:01 | 12.28798 | -61.75744 | 7267 ft | 269 kts | 229° |
| 2026-04-22 23:01 | 12.27564 | -61.77179 | 6981 ft | 268 kts | 229° |
| 2026-04-22 23:01 | 12.26331 | -61.78613 | 6674 ft | 268 kts | 229° |
| 2026-04-22 23:02 | 12.25100 | -61.80046 | 6359 ft | 268 kts | 229° |
| 2026-04-22 23:02 | 12.23869 | -61.81479 | 6027 ft | 268 kts | 229° |
| 2026-04-22 23:02 | 12.22654 | -61.82895 | 5721 ft | 267 kts | 229° |
| 2026-04-22 23:02 | 12.21428 | -61.84323 | 5404 ft | 267 kts | 229° |
| 2026-04-22 23:03 | 12.20206 | -61.85747 | 5085 ft | 266 kts | 228° |
| 2026-04-22 23:03 | 12.18982 | -61.87172 | 4781 ft | 265 kts | 228° |
| 2026-04-22 23:03 | 12.18183 | -61.88102 | 4680 ft | 259 kts | 229° |
| 2026-04-22 23:03 | 12.16644 | -61.89895 | 4514 ft | 246 kts | 228° |
| 2026-04-22 23:04 | 12.15520 | -61.91204 | 4204 ft | 246 kts | 228° |
| 2026-04-22 23:04 | 12.14771 | -61.92076 | 4016 ft | 245 kts | 228° |
| 2026-04-22 23:04 | 12.13665 | -61.93363 | 3836 ft | 236 kts | 228° |
| 2026-04-22 23:04 | 12.12606 | -61.94596 | 3700 ft | 226 kts | 229° |
| 2026-04-22 23:05 | 12.11584 | -61.95779 | 3557 ft | 217 kts | 226° |
| 2026-04-22 23:05 | 12.10428 | -61.96703 | 3436 ft | 207 kts | 204° |
| 2026-04-22 23:05 | 12.09071 | -61.97021 | 3338 ft | 195 kts | 182° |
| 2026-04-22 23:05 | 12.07752 | -61.97061 | 3212 ft | 187 kts | 177° |
| 2026-04-22 23:06 | 12.06458 | -61.97056 | 3016 ft | 185 kts | 176° |
| 2026-04-22 23:06 | 12.05174 | -61.97048 | 2828 ft | 184 kts | 177° |
| 2026-04-22 23:06 | 12.03918 | -61.97046 | 2652 ft | 182 kts | 178° |
| 2026-04-22 23:06 | 12.02669 | -61.96960 | 2486 ft | 179 kts | 166° |
| 2026-04-22 23:07 | 12.01547 | -61.96469 | 2314 ft | 173 kts | 140° |
| 2026-04-22 23:07 | 12.00773 | -61.95561 | 2085 ft | 168 kts | 114° |
| 2026-04-22 23:07 | 12.00472 | -61.94440 | 2001 ft | 164 kts | 93° |
| 2026-04-22 23:07 | 12.00432 | -61.93273 | 1994 ft | 163 kts | 89° |
| 2026-04-22 23:08 | 12.00439 | -61.92111 | 1990 ft | 165 kts | 88° |
| 2026-04-22 23:08 | 12.00447 | -61.90932 | 1986 ft | 167 kts | 88° |
| 2026-04-22 23:08 | 12.00450 | -61.89771 | 1927 ft | 157 kts | 88° |
| 2026-04-22 23:08 | 12.00449 | -61.88706 | 1736 ft | 148 kts | 89° |
| 2026-04-22 23:09 | 12.00446 | -61.87694 | 1519 ft | 137 kts | 88° |
| 2026-04-22 23:09 | 12.00443 | -61.86758 | 1341 ft | 128 kts | 88° |
| 2026-04-22 23:09 | 12.00439 | -61.85849 | 1166 ft | 128 kts | 87° |
| 2026-04-22 23:09 | 12.00436 | -61.84932 | 1019 ft | 129 kts | 87° |
| 2026-04-22 23:10 | 12.00432 | -61.84013 | 866 ft | 129 kts | 89° |
| 2026-04-22 23:10 | 12.00426 | -61.83099 | 683 ft | 128 kts | 91° |
| 2026-04-22 23:10 | 12.00422 | -61.82195 | 482 ft | 127 kts | 90° |
| 2026-04-22 23:10 | 12.00425 | -61.81291 | 316 ft | 128 kts | 91° |
| 2026-04-22 23:11 | 12.00424 | -61.80789 | 216 ft | 125 kts | 92° |
| 2026-04-22 23:11 | 12.00425 | -61.80672 | 205 ft | 125 kts | 92° |
| 2026-04-22 23:11 | 12.00418 | -61.79781 | 57 ft | 126 kts | 93° |
| 2026-04-22 23:11 | 12.00404 | -61.78990 | 44 ft | 83 kts | 89° |
| 2026-04-22 23:12 | 12.00408 | -61.78704 | 46 ft | 6 kts | 86° |
| 2026-04-22 23:12 | 12.00410 | -61.78645 | 46 ft | 9 kts | 85° |
| 2026-04-22 23:12 | 12.00447 | -61.78602 | 46 ft | 7 kts | 26° |
| 2026-04-22 23:12 | 12.00493 | -61.78598 | 46 ft | 5 kts | 2° |
| 2026-04-22 23:13 | 12.00519 | -61.78597 | 47 ft | 2 kts | 3° |
| 2026-04-22 23:13 | 12.00523 | -61.78597 | 47 ft | 1 kts | 3° |
| 2026-04-22 23:13 | 12.00543 | -61.78594 | 47 ft | 5 kts | 10° |
| 2026-04-22 23:13 | 12.00587 | -61.78578 | 49 ft | 7 kts | 18° |
| 2026-04-22 23:14 | 12.00624 | -61.78577 | 50 ft | 5 kts | 0° |
| 2026-04-22 23:14 | 12.00655 | -61.78577 | 46 ft | 2 kts | 0° |
| 2026-04-22 23:14 | 12.00656 | -61.78577 | 46 ft | 0 kts | 0° |